createdAt,value
2023-04-02T14:08:15.212Z,99.90
2023-04-02T14:11:03.098Z,92.00
2023-04-02T14:13:51.876Z,91.50
2023-04-02T14:16:38.834Z,91.60
2023-04-02T14:19:22.288Z,91.70
2023-04-02T14:22:13.238Z,92.40
2023-04-02T14:25:29.285Z,92.60
2023-04-02T14:27:55.936Z,92.90
2023-04-02T14:30:32.922Z,92.40
2023-04-02T14:33:24.492Z,91.30
2023-04-02T14:35:59.181Z,91.20
2023-04-02T14:39:04.307Z,90.90
2023-04-02T14:41:49.312Z,91.20
2023-04-02T14:44:19.220Z,91.60
2023-04-02T14:46:46.782Z,91.70
2023-04-02T14:49:24.168Z,90.40
2023-04-02T14:52:02.647Z,90.90
2023-04-02T14:54:40.103Z,91.90
2023-04-02T14:57:18.740Z,90.10
2023-04-02T14:59:57.445Z,90.10
2023-04-02T15:02:47.252Z,87.40
2023-04-02T15:05:28.093Z,89.70
2023-04-02T15:08:09.608Z,88.00
2023-04-02T15:11:03.104Z,88.90
2023-04-02T15:13:38.259Z,90.00
2023-04-02T15:16:14.587Z,87.50
2023-04-02T15:18:41.416Z,87.30
2023-04-02T15:21:55.780Z,86.60
2023-04-02T15:24:58.200Z,87.20
2023-04-02T15:27:48.001Z,87.50
2023-04-02T15:30:25.475Z,83.70
2023-04-02T15:32:56.969Z,86.60
2023-04-02T15:35:23.797Z,86.00
2023-04-02T15:38:11.049Z,88.00
2023-04-02T15:40:53.009Z,87.70
2023-04-02T15:43:28.753Z,88.30
2023-04-02T15:46:07.883Z,88.20
2023-04-02T15:49:10.073Z,88.00
2023-04-02T15:52:01.323Z,87.00
2023-04-02T15:54:37.438Z,89.70
2023-04-02T15:57:21.041Z,87.50
2023-04-02T15:59:53.844Z,88.80
2023-04-02T16:03:02.685Z,87.50
2023-04-02T16:05:54.080Z,88.10
2023-04-02T16:08:58.565Z,87.50
2023-04-02T16:11:27.247Z,88.10
2023-04-02T16:14:15.336Z,88.20
2023-04-02T16:16:46.761Z,86.70
2023-04-02T16:19:34.112Z,86.70
2023-04-02T16:22:24.475Z,87.00
2023-04-02T16:25:02.059Z,87.20
2023-04-02T16:27:37.943Z,88.10
2023-04-02T16:30:23.492Z,89.60
2023-04-02T16:32:50.075Z,89.70
2023-04-02T16:35:41.800Z,89.90
2023-04-02T16:38:13.060Z,89.50
2023-04-02T16:41:07.840Z,89.40
2023-04-02T16:43:52.506Z,88.10
2023-04-02T16:46:46.946Z,88.60
2023-04-02T16:49:28.509Z,89.00
2023-04-02T16:52:08.276Z,90.30
2023-04-02T16:55:10.096Z,90.00
2023-04-02T16:58:01.787Z,90.10
2023-04-02T17:00:47.215Z,90.10
2023-04-02T17:03:19.978Z,90.30
2023-04-02T17:06:08.263Z,89.20
2023-04-02T17:08:43.835Z,89.20
2023-04-02T17:11:31.352Z,89.80
2023-04-02T17:14:06.218Z,89.60
2023-04-02T17:16:48.457Z,90.30
2023-04-02T17:19:16.897Z,89.50
2023-04-02T17:21:48.385Z,90.30
2023-04-02T17:24:33.364Z,88.90
2023-04-02T17:27:16.999Z,88.60
2023-04-02T17:29:47.833Z,89.10
2023-04-02T17:32:30.078Z,90.00
2023-04-02T17:34:57.643Z,88.10
2023-04-02T17:37:39.295Z,88.90
2023-04-02T17:40:38.809Z,89.90
2023-04-02T17:43:26.904Z,89.10
2023-04-02T17:45:59.929Z,90.50
2023-04-02T17:48:46.593Z,91.40
2023-04-02T17:51:40.984Z,90.80
2023-04-02T17:54:21.940Z,90.10
2023-04-02T17:57:10.666Z,90.60
2023-04-02T18:00:04.432Z,90.50
2023-04-02T18:02:39.569Z,90.60
2023-04-02T18:05:12.357Z,90.40
2023-04-02T18:07:48.642Z,89.30
2023-04-02T18:10:27.512Z,90.20
2023-04-02T18:13:13.077Z,90.10
2023-04-02T18:16:00.243Z,89.20
2023-04-02T18:18:49.494Z,88.60
2023-04-02T18:21:35.657Z,89.70
2023-04-02T18:24:20.609Z,89.50
2023-04-02T18:27:18.398Z,89.40
2023-04-02T18:29:48.107Z,89.30
2023-04-02T18:32:32.704Z,89.30
2023-04-02T18:35:11.077Z,89.30
2023-04-02T18:37:56.604Z,90.30
2023-04-02T18:40:41.756Z,90.00
2023-04-02T18:43:37.256Z,90.00
2023-04-02T18:46:26.759Z,90.80
2023-04-02T18:49:18.072Z,90.60
2023-04-02T18:51:46.182Z,91.00
2023-04-02T18:54:25.332Z,90.50
2023-04-02T18:56:52.069Z,90.40
2023-04-02T18:59:30.293Z,90.30
2023-04-02T19:02:00.468Z,89.90
2023-04-02T19:04:30.780Z,90.00
2023-04-02T19:07:04.973Z,90.10
2023-04-02T19:09:35.433Z,89.50
2023-04-02T19:12:07.172Z,91.00
2023-04-02T19:14:33.785Z,90.80
2023-04-02T19:17:22.019Z,90.30
2023-04-02T19:20:12.503Z,90.70
2023-04-02T19:23:22.540Z,89.70
2023-04-02T19:25:58.037Z,90.10
2023-04-02T19:28:39.724Z,90.20
2023-04-02T19:31:23.654Z,90.00
2023-04-02T19:33:56.060Z,90.50
2023-04-02T19:36:42.653Z,90.10
2023-04-02T19:39:53.423Z,90.00
2023-04-02T19:42:44.270Z,90.40
2023-04-02T19:45:40.338Z,91.10
2023-04-02T19:48:20.363Z,90.30
2023-04-02T19:50:49.110Z,90.20
2023-04-02T19:53:16.102Z,90.40
2023-04-02T19:55:43.107Z,90.40
2023-04-02T19:58:22.738Z,89.70
2023-04-02T20:00:56.285Z,89.90
2023-04-02T20:03:23.408Z,89.30
2023-04-02T20:05:50.677Z,89.50
2023-04-02T20:08:17.389Z,88.40
2023-04-02T20:10:44.235Z,88.20
2023-04-02T20:13:11.405Z,88.20
2023-04-02T20:15:39.702Z,86.70
2023-04-02T20:18:06.449Z,87.30
2023-04-02T20:20:34.504Z,86.00
2023-04-02T20:23:01.454Z,86.40
2023-04-02T20:25:32.188Z,86.00
2023-04-02T20:28:00.738Z,86.40
2023-04-02T20:30:27.443Z,87.20
2023-04-02T20:32:55.638Z,87.30
2023-04-02T20:35:22.399Z,86.80
2023-04-02T20:37:48.997Z,86.80
2023-04-02T20:40:15.677Z,86.50
2023-04-02T20:42:42.287Z,87.00
2023-04-02T20:45:09.587Z,88.00
2023-04-02T20:47:36.387Z,88.30
2023-04-02T20:50:03.159Z,87.10
2023-04-02T20:52:30.289Z,87.70
2023-04-02T20:54:57.387Z,87.40
2023-04-02T20:57:25.948Z,88.10
2023-04-02T20:59:52.931Z,88.80
2023-04-02T21:02:19.580Z,88.40
2023-04-02T21:04:46.270Z,87.60
2023-04-02T21:07:12.911Z,89.10
2023-04-02T21:09:39.739Z,89.30
2023-04-02T21:12:07.280Z,89.10
2023-04-02T21:14:38.107Z,89.20
2023-04-02T21:17:06.873Z,90.00
2023-04-02T21:19:34.574Z,89.10
2023-04-02T21:22:01.597Z,88.20
2023-04-02T21:24:28.229Z,88.40
2023-04-02T21:26:54.900Z,89.00
2023-04-02T21:29:21.582Z,88.80
2023-04-02T21:31:48.278Z,89.50
2023-04-02T21:34:16.771Z,90.10
2023-04-02T21:36:45.677Z,90.70
2023-04-02T21:39:23.729Z,91.80
2023-04-02T21:41:52.284Z,92.60
2023-04-02T21:44:21.631Z,92.40
2023-04-02T21:46:50.354Z,94.00
2023-04-02T21:49:21.838Z,94.60
2023-04-02T21:51:51.306Z,95.90
2023-04-02T21:54:18.083Z,96.90
2023-04-02T21:56:46.230Z,97.80
2023-04-02T21:59:14.543Z,97.90
2023-04-02T22:01:44.050Z,98.40
2023-04-02T22:04:16.621Z,98.70
2023-04-02T22:06:44.528Z,99.30
2023-04-02T22:09:20.364Z,99.90
2023-04-02T22:11:49.668Z,99.90
2023-04-02T22:14:17.479Z,99.90
2023-04-02T22:16:44.424Z,99.90
2023-04-02T22:19:14.191Z,99.90
2023-04-02T22:21:41.773Z,99.90
2023-04-02T22:24:12.300Z,99.90
2023-04-02T22:26:40.501Z,99.90
2023-04-02T22:29:07.577Z,99.90
2023-04-02T22:31:35.063Z,99.90
2023-04-02T22:34:03.834Z,99.90
2023-04-02T22:36:31.278Z,99.90
2023-04-02T22:38:59.043Z,99.90
2023-04-02T22:41:28.022Z,99.90
2023-04-02T22:43:59.779Z,99.90
2023-04-02T22:46:27.370Z,99.90
2023-04-02T22:48:54.551Z,99.90
2023-04-02T22:51:23.137Z,99.90
2023-04-02T22:53:52.605Z,99.90
2023-04-02T22:56:21.987Z,99.90
2023-04-02T22:58:49.625Z,99.90
2023-04-02T23:01:25.680Z,99.90
2023-04-02T23:03:55.901Z,99.90
2023-04-02T23:06:24.568Z,99.90
2023-04-02T23:08:53.471Z,99.90
2023-04-02T23:11:22.792Z,99.90
2023-04-02T23:13:50.787Z,99.90
2023-04-02T23:16:18.230Z,99.90
2023-04-02T23:18:47.821Z,99.90
2023-04-02T23:21:15.095Z,99.90
2023-04-02T23:23:42.218Z,99.90
2023-04-02T23:26:15.401Z,99.20
2023-04-02T23:28:42.379Z,99.60
2023-04-02T23:31:13.464Z,99.90
2023-04-02T23:33:40.353Z,98.90
2023-04-02T23:36:13.389Z,98.90
2023-04-02T23:38:40.250Z,99.20
2023-04-02T23:41:06.828Z,99.40
2023-04-02T23:43:33.412Z,99.20
2023-04-02T23:46:00.124Z,98.30
2023-04-02T23:48:26.737Z,97.80
2023-04-02T23:50:53.353Z,97.00
2023-04-02T23:53:20.013Z,96.60
2023-04-02T23:55:46.601Z,96.30
2023-04-02T23:58:13.168Z,96.10
